^^
Grace C. Lehan Memorial Weather Station Historical Data
Daily Summary for August 8, 2022 Units:  Both    English   Metric
Daily Weekly Monthly Yearly
  High: Low: Average:
Temperature: 54.7 °F /  12.6 °C 36.9 °F /  2.7 °C 48.8 °F /  9.3 °C
Dew Point: 50.9 °F /  10.5 °C 29.8 °F /  -1.2 °C 40 °F /  4.4 °C
Humidity: 86.9% 55.8% 72%
Wind Speed: 9.9mph /  15.9km/h - 2.4mph /  3.9km/h
Wind Gust: 20mph /  32.2km/h - -
Wind- - WNW
Pressure: 30.23 in /  1023.6 hPa 30.04 in /  1017.2 hPa -
Precipitation: 0.00 in /  0 mm    
 
 
Tabular Data for August 8, 2022
Time Temperature Dew Point Pressure Wind Wind Speed Wind Gust Humidity Rainfall Rate (Hourly) solar
00:04 54.7 °F /  12.6 °C 50.9 °F /  10.5 °C 30.04in /  1017.2hPa North 1.7mph /  2.7km/h 17mph /  27.4km/h 86.9% 0.00in /  0mm 0 W/m2
00:09 54.5 °F /  12.5 °C 50.4 °F /  10.2 °C 30.04in /  1017.2hPa North 0.6mph /  1km/h 5mph /  8km/h 86% 0.00in /  0mm 0 W/m2
00:14 54.4 °F /  12.4 °C 50.3 °F /  10.2 °C 30.04in /  1017.2hPa North 0.7mph /  1.1km/h 5mph /  8km/h 86% 0.00in /  0mm 0 W/m2
00:19 54.3 °F /  12.4 °C 50 °F /  10 °C 30.04in /  1017.2hPa North 1.8mph /  2.9km/h 7mph /  11.3km/h 85.6% 0.00in /  0mm 0 W/m2
00:24 54.2 °F /  12.3 °C 49.8 °F /  9.9 °C 30.05in /  1017.5hPa NNE 0.8mph /  1.3km/h 9mph /  14.5km/h 85% 0.00in /  0mm 0 W/m2
00:29 54 °F /  12.2 °C 49.6 °F /  9.8 °C 30.05in /  1017.5hPa NNW 2.1mph /  3.4km/h 10mph /  16.1km/h 85% 0.00in /  0mm 0 W/m2
00:34 54 °F /  12.2 °C 49.3 °F /  9.6 °C 30.05in /  1017.5hPa NNE 1mph /  1.6km/h 10mph /  16.1km/h 84.1% 0.00in /  0mm 0 W/m2
00:39 54 °F /  12.2 °C 49.2 °F /  9.6 °C 30.05in /  1017.5hPa ENE 1.1mph /  1.8km/h 5mph /  8km/h 84% 0.00in /  0mm 0 W/m2
00:44 53.9 °F /  12.2 °C 49.2 °F /  9.6 °C 30.05in /  1017.5hPa ENE 0.2mph /  0.3km/h 5mph /  8km/h 84% 0.00in /  0mm 0 W/m2
00:49 53.8 °F /  12.1 °C 49.1 °F /  9.5 °C 30.05in /  1017.5hPa NNE 1.3mph /  2.1km/h 6mph /  9.7km/h 84% 0.00in /  0mm 0 W/m2
00:54 53.7 °F /  12.1 °C 48.7 °F /  9.3 °C 30.05in /  1017.5hPa NW 0.6mph /  1km/h 6mph /  9.7km/h 83.1% 0.00in /  0mm 0 W/m2
00:59 53.5 °F /  11.9 °C 48.5 °F /  9.2 °C 30.05in /  1017.5hPa NE 1.2mph /  1.9km/h 6mph /  9.7km/h 83% 0.00in /  0mm 0 W/m2
01:04 53.4 °F /  11.9 °C 48.4 °F /  9.1 °C 30.05in /  1017.5hPa NNW 0.3mph /  0.5km/h 6mph /  9.7km/h 83% 0.00in /  0mm 0 W/m2
01:09 53.3 °F /  11.8 °C 48.2 °F /  9 °C 30.05in /  1017.5hPa NNE 0.2mph /  0.3km/h 3mph /  4.8km/h 83% 0.00in /  0mm 0 W/m2
01:14 53.1 °F /  11.7 °C 48 °F /  8.9 °C 30.05in /  1017.5hPa North 0.1mph /  0.2km/h 3mph /  4.8km/h 83% 0.00in /  0mm 0 W/m2
01:19 52.9 °F /  11.6 °C 47.9 °F /  8.8 °C 30.05in /  1017.5hPa Calm   3mph /  4.8km/h 83% 0.00in /  0mm 0 W/m2
01:24 52.8 °F /  11.6 °C 47.8 °F /  8.8 °C 30.05in /  1017.5hPa NNE 0.4mph /  0.6km/h 4mph /  6.4km/h 83% 0.00in /  0mm 0 W/m2
01:29 52.6 °F /  11.4 °C 47.6 °F /  8.7 °C 30.05in /  1017.5hPa NNE 0.2mph /  0.3km/h 4mph /  6.4km/h 83% 0.00in /  0mm 0 W/m2
01:34 52.5 °F /  11.4 °C 47.5 °F /  8.6 °C 30.05in /  1017.5hPa NNE 0.2mph /  0.3km/h 4mph /  6.4km/h 83% 0.00in /  0mm 0 W/m2
01:39 52.3 °F /  11.3 °C 47.3 °F /  8.5 °C 30.06in /  1017.8hPa NNW 0.4mph /  0.6km/h 8mph /  12.9km/h 83% 0.00in /  0mm 0 W/m2
01:44 52.1 °F /  11.2 °C 47.2 °F /  8.4 °C 30.06in /  1017.8hPa NNW 1.1mph /  1.8km/h 8mph /  12.9km/h 83.1% 0.00in /  0mm 0 W/m2
01:49 52 °F /  11.1 °C 47 °F /  8.3 °C 30.06in /  1017.8hPa NNW 0.2mph /  0.3km/h 8mph /  12.9km/h 83% 0.00in /  0mm 0 W/m2
01:54 51.8 °F /  11 °C 46.8 °F /  8.2 °C 30.06in /  1017.8hPa NNE 0.5mph /  0.8km/h 8mph /  12.9km/h 83% 0.00in /  0mm 0 W/m2
01:59 51.7 °F /  10.9 °C 46.9 °F /  8.3 °C 30.07in /  1018.2hPa NNE 1.1mph /  1.8km/h 8mph /  12.9km/h 83.6% 0.00in /  0mm 0 W/m2
02:04 51.5 °F /  10.8 °C 46.9 °F /  8.3 °C 30.07in /  1018.2hPa NNW 0.8mph /  1.3km/h 8mph /  12.9km/h 84% 0.00in /  0mm 0 W/m2
02:09 51.5 °F /  10.8 °C 46.8 °F /  8.2 °C 30.08in /  1018.5hPa NNE 0.2mph /  0.3km/h 4mph /  6.4km/h 84% 0.00in /  0mm 0 W/m2
02:14 51.4 °F /  10.8 °C 46.8 °F /  8.2 °C 30.08in /  1018.5hPa NNE 0.3mph /  0.5km/h 4mph /  6.4km/h 84% 0.00in /  0mm 0 W/m2
02:19 51.3 °F /  10.7 °C 46.7 °F /  8.2 °C 30.08in /  1018.5hPa NNE 0.2mph /  0.3km/h 4mph /  6.4km/h 84% 0.00in /  0mm 0 W/m2
02:24 51.3 °F /  10.7 °C 46.4 °F /  8 °C 30.08in /  1018.5hPa WNW 1.5mph /  2.4km/h 12mph /  19.3km/h 83.3% 0.00in /  0mm 0 W/m2
02:29 51.2 °F /  10.7 °C 46.2 °F /  7.9 °C 30.08in /  1018.5hPa North 2.1mph /  3.4km/h 14mph /  22.5km/h 83% 0.00in /  0mm 0 W/m2
02:34 51.1 °F /  10.6 °C 46.1 °F /  7.8 °C 30.08in /  1018.5hPa NW 1.4mph /  2.3km/h 14mph /  22.5km/h 83% 0.00in /  0mm 0 W/m2
02:39 51 °F /  10.6 °C 46 °F /  7.8 °C 30.08in /  1018.5hPa NW 1.9mph /  3.1km/h 9mph /  14.5km/h 83% 0.00in /  0mm 0 W/m2
02:44 50.8 °F /  10.4 °C 46.1 °F /  7.8 °C 30.08in /  1018.5hPa NW 0.3mph /  0.5km/h 9mph /  14.5km/h 83.7% 0.00in /  0mm 0 W/m2
02:49 50.7 °F /  10.4 °C 46.1 °F /  7.8 °C 30.08in /  1018.5hPa NW 1.1mph /  1.8km/h 9mph /  14.5km/h 84% 0.00in /  0mm 0 W/m2
02:54 50.5 °F /  10.3 °C 45.9 °F /  7.7 °C 30.08in /  1018.5hPa NNW 3.4mph /  5.5km/h 13mph /  20.9km/h 84% 0.00in /  0mm 0 W/m2
02:59 50.4 °F /  10.2 °C 45.8 °F /  7.7 °C 30.08in /  1018.5hPa NW 3.4mph /  5.5km/h 16mph /  25.7km/h 84% 0.00in /  0mm 0 W/m2
03:04 50.3 °F /  10.2 °C 45.7 °F /  7.6 °C 30.08in /  1018.5hPa WNW 4.3mph /  6.9km/h 16mph /  25.7km/h 84% 0.00in /  0mm 0 W/m2
03:09 50.2 °F /  10.1 °C 45.5 °F /  7.5 °C 30.08in /  1018.5hPa NW 2.3mph /  3.7km/h 14mph /  22.5km/h 84% 0.00in /  0mm 0 W/m2
03:14 50.1 °F /  10.1 °C 45.4 °F /  7.4 °C 30.08in /  1018.5hPa NW 4mph /  6.4km/h 14mph /  22.5km/h 84% 0.00in /  0mm 0 W/m2
03:19 50 °F /  10 °C 45.4 °F /  7.4 °C 30.08in /  1018.5hPa WNW 6.3mph /  10.1km/h 16mph /  25.7km/h 84% 0.00in /  0mm 0 W/m2
03:24 50 °F /  10 °C 45.3 °F /  7.4 °C 30.08in /  1018.5hPa WNW 3mph /  4.8km/h 16mph /  25.7km/h 84% 0.00in /  0mm 0 W/m2
03:29 49.9 °F /  9.9 °C 45.2 °F /  7.3 °C 30.08in /  1018.5hPa WNW 2.8mph /  4.5km/h 16mph /  25.7km/h 84% 0.00in /  0mm 0 W/m2
03:34 49.8 °F /  9.9 °C 45.1 °F /  7.3 °C 30.08in /  1018.5hPa NW 4.1mph /  6.6km/h 16mph /  25.7km/h 84% 0.00in /  0mm 0 W/m2
03:39 49.7 °F /  9.8 °C 45.1 °F /  7.3 °C 30.08in /  1018.5hPa WNW 1mph /  1.6km/h 11mph /  17.7km/h 84% 0.00in /  0mm 0 W/m2
03:44 49.7 °F /  9.8 °C 44.8 °F /  7.1 °C 30.08in /  1018.5hPa NW 1.5mph /  2.4km/h 11mph /  17.7km/h 83.2% 0.00in /  0mm 0 W/m2
03:49 49.6 °F /  9.8 °C 44.6 °F /  7 °C 30.08in /  1018.5hPa NW 0.9mph /  1.4km/h 11mph /  17.7km/h 83% 0.00in /  0mm 0 W/m2
03:54 49.4 °F /  9.7 °C 44.6 °F /  7 °C 30.08in /  1018.5hPa NNW 1.9mph /  3.1km/h 11mph /  17.7km/h 83.2% 0.00in /  0mm 0 W/m2
03:59 49.4 °F /  9.7 °C 44.6 °F /  7 °C 30.09in /  1018.8hPa NW 1.1mph /  1.8km/h 11mph /  17.7km/h 83.4% 0.00in /  0mm 0 W/m2
04:00 49.4 °F /  9.7 °C 44.5 °F /  6.9 °C 30.09in /  1018.8hPa Calm   11mph /  17.7km/h 83% 0.00in /  0mm 0 W/m2
04:09 49.3 °F /  9.6 °C 44.6 °F /  7 °C 30.09in /  1018.8hPa NW 3.5mph /  5.6km/h 11mph /  17.7km/h 83.9% 0.00in /  0mm 0 W/m2
04:14 49.3 °F /  9.6 °C 44.5 °F /  6.9 °C 30.09in /  1018.8hPa NW 2.8mph /  4.5km/h 11mph /  17.7km/h 83.6% 0.00in /  0mm 0 W/m2
04:19 49.4 °F /  9.7 °C 44.5 °F /  6.9 °C 30.09in /  1018.8hPa NW 1mph /  1.6km/h 11mph /  17.7km/h 83% 0.00in /  0mm 0 W/m2
04:24 49.4 °F /  9.7 °C 44.5 °F /  6.9 °C 30.09in /  1018.8hPa NNW 1.2mph /  1.9km/h 11mph /  17.7km/h 83% 0.00in /  0mm 0 W/m2
04:29 49.4 °F /  9.7 °C 44.4 °F /  6.9 °C 30.09in /  1018.8hPa Calm   11mph /  17.7km/h 83% 0.00in /  0mm 0 W/m2
04:34 49.3 °F /  9.6 °C 44.3 °F /  6.8 °C 30.09in /  1018.8hPa North 0.7mph /  1.1km/h 11mph /  17.7km/h 83% 0.00in /  0mm 0 W/m2
04:39 49.2 °F /  9.6 °C 44.2 °F /  6.8 °C 30.09in /  1018.8hPa NNW 0.6mph /  1km/h 7mph /  11.3km/h 83% 0.00in /  0mm 0 W/m2
04:44 49 °F /  9.4 °C 44.1 °F /  6.7 °C 30.09in /  1018.8hPa NNW 0.6mph /  1km/h 7mph /  11.3km/h 83% 0.00in /  0mm 0 W/m2
04:49 48.9 °F /  9.4 °C 44 °F /  6.7 °C 30.09in /  1018.8hPa Calm   7mph /  11.3km/h 83% 0.00in /  0mm 0 W/m2
04:54 48.8 °F /  9.3 °C 43.8 °F /  6.6 °C 30.09in /  1018.8hPa NNW 0.2mph /  0.3km/h 7mph /  11.3km/h 83% 0.00in /  0mm 0 W/m2
04:59 48.7 °F /  9.3 °C 43.9 °F /  6.6 °C 30.10in /  1019.2hPa NNW 0.5mph /  0.8km/h 7mph /  11.3km/h 83.5% 0.00in /  0mm 0 W/m2
05:04 48.6 °F /  9.2 °C 44 °F /  6.7 °C 30.11in /  1019.5hPa NW 1.3mph /  2.1km/h 10mph /  16.1km/h 84% 0.00in /  0mm 0 W/m2
05:09 48.6 °F /  9.2 °C 44 °F /  6.7 °C 30.11in /  1019.5hPa NW 0.2mph /  0.3km/h 10mph /  16.1km/h 84% 0.00in /  0mm 0 W/m2
05:14 48.5 °F /  9.2 °C 43.6 °F /  6.4 °C 30.11in /  1019.5hPa NW 1.1mph /  1.8km/h 10mph /  16.1km/h 83.4% 0.00in /  0mm 0 W/m2
05:19 48.2 °F /  9 °C 43.3 °F /  6.3 °C 30.11in /  1019.5hPa NW 4mph /  6.4km/h 12mph /  19.3km/h 83% 0.00in /  0mm 0 W/m2
05:24 48.2 °F /  9 °C 43.7 °F /  6.5 °C 30.11in /  1019.5hPa NW 6.3mph /  10.1km/h 15mph /  24.1km/h 84.3% 0.00in /  0mm 0 W/m2
05:29 48.3 °F /  9.1 °C 43.1 °F /  6.2 °C 30.11in /  1019.5hPa NNW 5.5mph /  8.9km/h 16mph /  25.7km/h 82.2% 0.00in /  0mm 0 W/m2
05:34 48.3 °F /  9.1 °C 42.9 °F /  6.1 °C 30.11in /  1019.5hPa NW 6.7mph /  10.8km/h 17mph /  27.4km/h 81.5% 0.00in /  0mm 0 W/m2
05:39 48.4 °F /  9.1 °C 42.8 °F /  6 °C 30.12in /  1019.9hPa NW 5.1mph /  8.2km/h 19mph /  30.6km/h 81% 0.00in /  0mm 0 W/m2
05:44 48.4 °F /  9.1 °C 42.8 °F /  6 °C 30.12in /  1019.9hPa NW 3.3mph /  5.3km/h 19mph /  30.6km/h 81% 0.00in /  0mm 0 W/m2
05:49 48.3 °F /  9.1 °C 42.7 °F /  5.9 °C 30.13in /  1020.2hPa NNW 1.2mph /  1.9km/h 19mph /  30.6km/h 81% 0.00in /  0mm 0 W/m2
05:54 48.1 °F /  8.9 °C 42.5 °F /  5.8 °C 30.13in /  1020.2hPa NW 5.4mph /  8.7km/h 19mph /  30.6km/h 81% 0.00in /  0mm 0 W/m2
05:59 47.9 °F /  8.8 °C 42.4 °F /  5.8 °C 30.13in /  1020.2hPa NW 4.8mph /  7.7km/h 19mph /  30.6km/h 81% 0.00in /  0mm 0 W/m2
06:04 47.8 °F /  8.8 °C 42.4 °F /  5.8 °C 30.13in /  1020.2hPa NW 7.3mph /  11.7km/h 19mph /  30.6km/h 81.3% 0.00in /  0mm 0 W/m2
06:09 47.8 °F /  8.8 °C 42.3 °F /  5.7 °C 30.13in /  1020.2hPa NW 8.2mph /  13.2km/h 18mph /  29km/h 81% 0.00in /  0mm 0 W/m2
06:14 47.8 °F /  8.8 °C 42.3 °F /  5.7 °C 30.13in /  1020.2hPa NW 9.2mph /  14.8km/h 18mph /  29km/h 81% 0.00in /  0mm 0 W/m2
06:19 47.7 °F /  8.7 °C 42.2 °F /  5.7 °C 30.13in /  1020.2hPa NW 9.9mph /  15.9km/h 18mph /  29km/h 81% 0.00in /  0mm 0 W/m2
06:24 47.7 °F /  8.7 °C 42.2 °F /  5.7 °C 30.13in /  1020.2hPa NW 7.7mph /  12.4km/h 18mph /  29km/h 81% 0.00in /  0mm 0 W/m2
06:29 47.7 °F /  8.7 °C 42 °F /  5.6 °C 30.13in /  1020.2hPa NW 7.4mph /  11.9km/h 18mph /  29km/h 80.5% 0.00in /  0mm 0 W/m2
06:34 47.6 °F /  8.7 °C 42 °F /  5.6 °C 30.13in /  1020.2hPa NW 8.2mph /  13.2km/h 18mph /  29km/h 80.8% 0.00in /  0mm 0 W/m2
06:37 47.6 °F /  8.7 °C 41.7 °F /  5.4 °C 30.14in /  1020.5hPa WNW 5.2mph /  8.4km/h 13mph /  20.9km/h 80% 0.00in /  0mm 0 W/m2
07:00 47.2 °F /  8.4 °C 41.4 °F /  5.2 °C 30.14in /  1020.5hPa NW 6mph /  9.7km/h 20mph /  32.2km/h 80% 0.00in /  0mm 0 W/m2
07:30 47.2 °F /  8.4 °C 41 °F /  5 °C 30.15in /  1020.9hPa NW 6mph /  9.7km/h 19mph /  30.6km/h 79% 0.00in /  0mm 7 W/m2
08:04 48.9 °F /  9.4 °C 41.4 °F /  5.2 °C 30.16in /  1021.2hPa NW 5.3mph /  8.5km/h 19mph /  30.6km/h 75.3% 0.00in /  0mm 120 W/m2
08:09 49.2 °F /  9.6 °C 41.4 °F /  5.2 °C 30.16in /  1021.2hPa NW 3.5mph /  5.6km/h 15mph /  24.1km/h 74.2% 0.00in /  0mm 125 W/m2
08:14 49.5 °F /  9.7 °C 41.5 °F /  5.3 °C 30.16in /  1021.2hPa NW 3.9mph /  6.3km/h 15mph /  24.1km/h 73.7% 0.00in /  0mm 132 W/m2
08:19 49.7 °F /  9.8 °C 41.4 °F /  5.2 °C 30.16in /  1021.2hPa NW 2.6mph /  4.2km/h 15mph /  24.1km/h 73% 0.00in /  0mm 160 W/m2
08:24 49.9 °F /  9.9 °C 41.3 °F /  5.2 °C 30.16in /  1021.2hPa NW 2.8mph /  4.5km/h 16mph /  25.7km/h 72.1% 0.00in /  0mm 178 W/m2
08:29 50.2 °F /  10.1 °C 41.3 °F /  5.2 °C 30.16in /  1021.2hPa NW 3.8mph /  6.1km/h 18mph /  29km/h 71.4% 0.00in /  0mm 172 W/m2
08:34 50.4 °F /  10.2 °C 41.4 °F /  5.2 °C 30.17in /  1021.6hPa NW 1.9mph /  3.1km/h 18mph /  29km/h 71% 0.00in /  0mm 172 W/m2
08:39 50.5 °F /  10.3 °C 41.2 °F /  5.1 °C 30.17in /  1021.6hPa NW 4.8mph /  7.7km/h 12mph /  19.3km/h 70.4% 0.00in /  0mm 86 W/m2
08:44 50.2 °F /  10.1 °C 41 °F /  5 °C 30.17in /  1021.6hPa NW 2.3mph /  3.7km/h 12mph /  19.3km/h 70.5% 0.00in /  0mm 93 W/m2
08:49 50 °F /  10 °C 41 °F /  5 °C 30.18in /  1021.9hPa NW 4.9mph /  7.9km/h 12mph /  19.3km/h 71.2% 0.00in /  0mm 100 W/m2
08:54 49.7 °F /  9.8 °C 40.8 °F /  4.9 °C 30.17in /  1021.6hPa NW 5mph /  8km/h 13mph /  20.9km/h 71% 0.00in /  0mm 104 W/m2
08:59 49.6 °F /  9.8 °C 40.9 °F /  4.9 °C 30.18in /  1021.9hPa NW 4.6mph /  7.4km/h 13mph /  20.9km/h 72% 0.00in /  0mm 100 W/m2
09:04 49.5 °F /  9.7 °C 40.9 °F /  4.9 °C 30.18in /  1021.9hPa NW 0.7mph /  1.1km/h 13mph /  20.9km/h 72.1% 0.00in /  0mm 90 W/m2
09:09 49.4 °F /  9.7 °C 41.1 °F /  5.1 °C 30.18in /  1021.9hPa NW 0.8mph /  1.3km/h 8mph /  12.9km/h 73% 0.00in /  0mm 70 W/m2
09:14 49.3 °F /  9.6 °C 40.9 °F /  4.9 °C 30.18in /  1021.9hPa NW 4.7mph /  7.6km/h 10mph /  16.1km/h 72.5% 0.00in /  0mm 69 W/m2
09:19 49.2 °F /  9.6 °C 40.7 °F /  4.8 °C 30.18in /  1021.9hPa NW 2.8mph /  4.5km/h 12mph /  19.3km/h 72.4% 0.00in /  0mm 84 W/m2
09:24 49.1 °F /  9.5 °C 40.9 °F /  4.9 °C 30.18in /  1021.9hPa NW 4.1mph /  6.6km/h 13mph /  20.9km/h 73% 0.00in /  0mm 109 W/m2
09:29 49.2 °F /  9.6 °C 40.7 °F /  4.8 °C 30.18in /  1021.9hPa NW 7.7mph /  12.4km/h 15mph /  24.1km/h 72.3% 0.00in /  0mm 114 W/m2
09:34 49.3 °F /  9.6 °C 40.5 °F /  4.7 °C 30.18in /  1021.9hPa NW 2.7mph /  4.3km/h 15mph /  24.1km/h 71.7% 0.00in /  0mm 151 W/m2
09:39 49.6 °F /  9.8 °C 40.7 °F /  4.8 °C 30.18in /  1021.9hPa NW 4.2mph /  6.8km/h 13mph /  20.9km/h 71.3% 0.00in /  0mm 151 W/m2
09:44 49.8 °F /  9.9 °C 40.7 °F /  4.8 °C 30.18in /  1021.9hPa NW 2.5mph /  4km/h 13mph /  20.9km/h 70.5% 0.00in /  0mm 125 W/m2
09:49 50.1 °F /  10.1 °C 40.3 °F /  4.6 °C 30.18in /  1021.9hPa NW 2.9mph /  4.7km/h 14mph /  22.5km/h 69% 0.00in /  0mm 104 W/m2
09:54 50.2 °F /  10.1 °C 40.6 °F /  4.8 °C 30.18in /  1021.9hPa NW 1.6mph /  2.6km/h 14mph /  22.5km/h 69.4% 0.00in /  0mm 169 W/m2
09:59 50.6 °F /  10.3 °C 40.8 °F /  4.9 °C 30.18in /  1021.9hPa NNW 3.2mph /  5.1km/h 15mph /  24.1km/h 68.9% 0.00in /  0mm 135 W/m2
10:04 51 °F /  10.6 °C 40.5 °F /  4.7 °C 30.18in /  1021.9hPa WNW 2.8mph /  4.5km/h 15mph /  24.1km/h 67.1% 0.00in /  0mm 258 W/m2
10:09 51.4 °F /  10.8 °C 40.6 °F /  4.8 °C 30.18in /  1021.9hPa WNW 3.3mph /  5.3km/h 12mph /  19.3km/h 66.5% 0.00in /  0mm 381 W/m2
10:14 52 °F /  11.1 °C 41 °F /  5 °C 30.18in /  1021.9hPa NNW 2mph /  3.2km/h 12mph /  19.3km/h 66.1% 0.00in /  0mm 508 W/m2
10:19 52.9 °F /  11.6 °C 42.1 °F /  5.6 °C 30.17in /  1021.6hPa NNW 6.1mph /  9.8km/h 13mph /  20.9km/h 66.7% 0.00in /  0mm 541 W/m2
10:24 53.6 °F /  12 °C 41.4 °F /  5.2 °C 30.18in /  1021.9hPa NW 6.4mph /  10.3km/h 13mph /  20.9km/h 63.2% 0.00in /  0mm 522 W/m2
10:29 53.9 °F /  12.2 °C 41.4 °F /  5.2 °C 30.17in /  1021.6hPa NW 6mph /  9.7km/h 14mph /  22.5km/h 62.5% 0.00in /  0mm 341 W/m2
10:34 54 °F /  12.2 °C 41.8 °F /  5.4 °C 30.17in /  1021.6hPa NNW 1.8mph /  2.9km/h 14mph /  22.5km/h 63.2% 0.00in /  0mm 341 W/m2
10:39 53.9 °F /  12.2 °C 41.7 °F /  5.4 °C 30.17in /  1021.6hPa NW 2.8mph /  4.5km/h 10mph /  16.1km/h 63.1% 0.00in /  0mm 294 W/m2
10:44 53.9 °F /  12.2 °C 42.2 °F /  5.7 °C 30.17in /  1021.6hPa NW 3.9mph /  6.3km/h 13mph /  20.9km/h 64.5% 0.00in /  0mm 272 W/m2
10:49 53.8 °F /  12.1 °C 42.2 °F /  5.7 °C 30.17in /  1021.6hPa North 3.9mph /  6.3km/h 13mph /  20.9km/h 64.5% 0.00in /  0mm 162 W/m2
10:54 53.3 °F /  11.8 °C 41.6 °F /  5.3 °C 30.17in /  1021.6hPa NNW 3.3mph /  5.3km/h 13mph /  20.9km/h 64.5% 0.00in /  0mm 185 W/m2
10:59 52.8 °F /  11.6 °C 41.8 °F /  5.4 °C 30.17in /  1021.6hPa NNW 0.9mph /  1.4km/h 13mph /  20.9km/h 66% 0.00in /  0mm 220 W/m2
11:04 52.8 °F /  11.6 °C 42.2 °F /  5.7 °C 30.17in /  1021.6hPa NNW 2.3mph /  3.7km/h 13mph /  20.9km/h 67.2% 0.00in /  0mm 181 W/m2
11:09 52.9 °F /  11.6 °C 42 °F /  5.6 °C 30.17in /  1021.6hPa North 3.5mph /  5.6km/h 13mph /  20.9km/h 66.5% 0.00in /  0mm 135 W/m2
11:14 52.8 °F /  11.6 °C 42 °F /  5.6 °C 30.17in /  1021.6hPa NW 2.5mph /  4km/h 13mph /  20.9km/h 66.7% 0.00in /  0mm 90 W/m2
11:19 52.7 °F /  11.5 °C 41.9 °F /  5.5 °C 30.16in /  1021.2hPa North 0.5mph /  0.8km/h 13mph /  20.9km/h 66.5% 0.00in /  0mm 188 W/m2
11:24 52.9 °F /  11.6 °C 42.4 °F /  5.8 °C 30.16in /  1021.2hPa NNW 0.9mph /  1.4km/h 13mph /  20.9km/h 67.5% 0.00in /  0mm 262 W/m2
11:29 53.2 °F /  11.8 °C 42.7 °F /  5.9 °C 30.16in /  1021.2hPa North 1.2mph /  1.9km/h 13mph /  20.9km/h 67.3% 0.00in /  0mm 267 W/m2
11:34 53.5 °F /  11.9 °C 42.2 °F /  5.7 °C 30.16in /  1021.2hPa NNW 2.9mph /  4.7km/h 15mph /  24.1km/h 65.6% 0.00in /  0mm 206 W/m2
11:39 53.4 °F /  11.9 °C 42.3 °F /  5.7 °C 30.16in /  1021.2hPa NNW 3.2mph /  5.1km/h 15mph /  24.1km/h 65.9% 0.00in /  0mm 288 W/m2
11:44 53.2 °F /  11.8 °C 41.8 °F /  5.4 °C 30.16in /  1021.2hPa North 2.2mph /  3.5km/h 15mph /  24.1km/h 65% 0.00in /  0mm 135 W/m2
11:49 53 °F /  11.7 °C 41.3 °F /  5.2 °C 30.16in /  1021.2hPa NNE 0.9mph /  1.4km/h 15mph /  24.1km/h 64.3% 0.00in /  0mm 229 W/m2
11:54 52.7 °F /  11.5 °C 41.1 °F /  5.1 °C 30.16in /  1021.2hPa North 1mph /  1.6km/h 15mph /  24.1km/h 64.5% 0.00in /  0mm 276 W/m2
11:59 52.7 °F /  11.5 °C 41.3 °F /  5.2 °C 30.15in /  1020.9hPa NNW 5.4mph /  8.7km/h 18mph /  29km/h 64.9% 0.00in /  0mm 207 W/m2
12:04 52.7 °F /  11.5 °C 39.7 °F /  4.3 °C 30.15in /  1020.9hPa NW 1.6mph /  2.6km/h 9mph /  14.5km/h 61.3% 0.00in /  0mm 308 W/m2
12:09 52.7 °F /  11.5 °C 40 °F /  4.4 °C 30.15in /  1020.9hPa NW 5.6mph /  9km/h 17mph /  27.4km/h 61.9% 0.00in /  0mm 315 W/m2
12:14 52.9 °F /  11.6 °C 39.7 °F /  4.3 °C 30.15in /  1020.9hPa NW 5.6mph /  9km/h 17mph /  27.4km/h 60.8% 0.00in /  0mm 253 W/m2
12:19 53 °F /  11.7 °C 39.7 °F /  4.3 °C 30.14in /  1020.5hPa NW 3.5mph /  5.6km/h 17mph /  27.4km/h 60.6% 0.00in /  0mm 167 W/m2
12:24 52.9 °F /  11.6 °C 39.5 °F /  4.2 °C 30.14in /  1020.5hPa NW 5.2mph /  8.4km/h 17mph /  27.4km/h 60.2% 0.00in /  0mm 141 W/m2
12:29 53.1 °F /  11.7 °C 39.1 °F /  3.9 °C 30.14in /  1020.5hPa NW 5.5mph /  8.9km/h 17mph /  27.4km/h 59% 0.00in /  0mm 127 W/m2
12:34 53.2 °F /  11.8 °C 39.2 °F /  4 °C 30.13in /  1020.2hPa WNW 4.5mph /  7.2km/h 17mph /  27.4km/h 58.8% 0.00in /  0mm 445 W/m2
12:39 53.4 °F /  11.9 °C 39.1 °F /  3.9 °C 30.13in /  1020.2hPa WNW 6mph /  9.7km/h 14mph /  22.5km/h 58.1% 0.00in /  0mm 445 W/m2
12:44 53.5 °F /  11.9 °C 38.8 °F /  3.8 °C 30.14in /  1020.5hPa NW 6.6mph /  10.6km/h 15mph /  24.1km/h 57.3% 0.00in /  0mm 322 W/m2
12:49 53.5 °F /  11.9 °C 38.1 °F /  3.4 °C 30.14in /  1020.5hPa NW 7.4mph /  11.9km/h 19mph /  30.6km/h 55.8% 0.00in /  0mm 322 W/m2
12:54 53.4 °F /  11.9 °C 38.1 °F /  3.4 °C 30.14in /  1020.5hPa NW 7.2mph /  11.6km/h 19mph /  30.6km/h 56% 0.00in /  0mm 141 W/m2
12:59 53.1 °F /  11.7 °C 38.2 °F /  3.4 °C 30.14in /  1020.5hPa WNW 3mph /  4.8km/h 19mph /  30.6km/h 56.8% 0.00in /  0mm 185 W/m2
13:04 52.9 °F /  11.6 °C 38.3 °F /  3.5 °C 30.15in /  1020.9hPa NW 1.2mph /  1.9km/h 19mph /  30.6km/h 57.3% 0.00in /  0mm 81 W/m2
13:09 52.7 °F /  11.5 °C 38.5 °F /  3.6 °C 30.14in /  1020.5hPa WNW 3.5mph /  5.6km/h 12mph /  19.3km/h 58.2% 0.00in /  0mm 53 W/m2
13:14 52.5 °F /  11.4 °C 38.3 °F /  3.5 °C 30.14in /  1020.5hPa WNW 1.4mph /  2.3km/h 12mph /  19.3km/h 58.4% 0.00in /  0mm 70 W/m2
13:19 52.3 °F /  11.3 °C 38.5 °F /  3.6 °C 30.14in /  1020.5hPa NNW 1.9mph /  3.1km/h 12mph /  19.3km/h 59.1% 0.00in /  0mm 93 W/m2
13:24 52.2 °F /  11.2 °C 38.1 °F /  3.4 °C 30.15in /  1020.9hPa NW 2.8mph /  4.5km/h 12mph /  19.3km/h 58.6% 0.00in /  0mm 69 W/m2
13:29 52 °F /  11.1 °C 37.9 °F /  3.3 °C 30.14in /  1020.5hPa NW 2.3mph /  3.7km/h 12mph /  19.3km/h 58.4% 0.00in /  0mm 81 W/m2
13:34 51.9 °F /  11.1 °C 37.8 °F /  3.2 °C 30.14in /  1020.5hPa NNW 1.5mph /  2.4km/h 12mph /  19.3km/h 58.5% 0.00in /  0mm 107 W/m2
13:39 51.8 °F /  11 °C 37.9 °F /  3.3 °C 30.14in /  1020.5hPa NNW 1.2mph /  1.9km/h 9mph /  14.5km/h 59% 0.00in /  0mm 97 W/m2
13:44 51.8 °F /  11 °C 37.7 °F /  3.2 °C 30.14in /  1020.5hPa NW 4.3mph /  6.9km/h 15mph /  24.1km/h 58.5% 0.00in /  0mm 98 W/m2
13:49 51.7 °F /  10.9 °C 37.4 °F /  3 °C 30.14in /  1020.5hPa NW 3.5mph /  5.6km/h 15mph /  24.1km/h 58% 0.00in /  0mm 98 W/m2
13:54 51.6 °F /  10.9 °C 37.7 °F /  3.2 °C 30.14in /  1020.5hPa NW 0.5mph /  0.8km/h 15mph /  24.1km/h 58.8% 0.00in /  0mm 81 W/m2
13:59 51.6 °F /  10.9 °C 37.5 °F /  3.1 °C 30.14in /  1020.5hPa NNW 2.2mph /  3.5km/h 15mph /  24.1km/h 58.3% 0.00in /  0mm 67 W/m2
14:04 51.5 °F /  10.8 °C 37.2 °F /  2.9 °C 30.14in /  1020.5hPa NW 3.3mph /  5.3km/h 15mph /  24.1km/h 58% 0.00in /  0mm 83 W/m2
14:09 51.4 °F /  10.8 °C 37.1 °F /  2.8 °C 30.14in /  1020.5hPa NW 3.3mph /  5.3km/h 12mph /  19.3km/h 58% 0.00in /  0mm 63 W/m2
14:14 51.3 °F /  10.7 °C 36.8 °F /  2.7 °C 30.14in /  1020.5hPa WNW 5.3mph /  8.5km/h 16mph /  25.7km/h 57.4% 0.00in /  0mm 62 W/m2
14:19 51.2 °F /  10.7 °C 36.4 °F /  2.4 °C 30.14in /  1020.5hPa NW 3.3mph /  5.3km/h 16mph /  25.7km/h 56.8% 0.00in /  0mm 84 W/m2
14:24 51 °F /  10.6 °C 36.5 °F /  2.5 °C 30.14in /  1020.5hPa NW 2.2mph /  3.5km/h 16mph /  25.7km/h 57.4% 0.00in /  0mm 72 W/m2
14:29 51 °F /  10.6 °C 36.6 °F /  2.6 °C 30.14in /  1020.5hPa NW 2.5mph /  4km/h 16mph /  25.7km/h 57.7% 0.00in /  0mm 90 W/m2
14:34 51 °F /  10.6 °C 37 °F /  2.8 °C 30.14in /  1020.5hPa NW 2.3mph /  3.7km/h 16mph /  25.7km/h 58.5% 0.00in /  0mm 90 W/m2
14:39 51.1 °F /  10.6 °C 36.5 °F /  2.5 °C 30.14in /  1020.5hPa NW 3.2mph /  5.1km/h 11mph /  17.7km/h 57.3% 0.00in /  0mm 81 W/m2
14:44 51.3 °F /  10.7 °C 36.6 °F /  2.6 °C 30.15in /  1020.9hPa NW 2.2mph /  3.5km/h 11mph /  17.7km/h 57.2% 0.00in /  0mm 67 W/m2
14:49 51.4 °F /  10.8 °C 36.7 °F /  2.6 °C 30.15in /  1020.9hPa NW 4.6mph /  7.4km/h 11mph /  17.7km/h 57% 0.00in /  0mm 62 W/m2
14:54 51.2 °F /  10.7 °C 36.4 °F /  2.4 °C 30.15in /  1020.9hPa NNW 2.9mph /  4.7km/h 12mph /  19.3km/h 56.6% 0.00in /  0mm 54 W/m2
14:59 51.1 °F /  10.6 °C 36.4 °F /  2.4 °C 30.14in /  1020.5hPa NW 1.2mph /  1.9km/h 12mph /  19.3km/h 57% 0.00in /  0mm 54 W/m2
15:04 51 °F /  10.6 °C 36.6 °F /  2.6 °C 30.14in /  1020.5hPa NW 1.3mph /  2.1km/h 12mph /  19.3km/h 57.7% 0.00in /  0mm 47 W/m2
15:09 50.8 °F /  10.4 °C 36.3 °F /  2.4 °C 30.14in /  1020.5hPa NW 2.3mph /  3.7km/h 9mph /  14.5km/h 57.4% 0.00in /  0mm 30 W/m2
15:14 50.5 °F /  10.3 °C 35.9 °F /  2.2 °C 30.14in /  1020.5hPa NW 3.1mph /  5km/h 11mph /  17.7km/h 57% 0.00in /  0mm 21 W/m2
15:19 50.2 °F /  10.1 °C 35.7 °F /  2.1 °C 30.14in /  1020.5hPa NW 2.4mph /  3.9km/h 11mph /  17.7km/h 57.2% 0.00in /  0mm 19 W/m2
15:24 50 °F /  10 °C 35.7 °F /  2.1 °C 30.14in /  1020.5hPa NW 1.6mph /  2.6km/h 11mph /  17.7km/h 57.8% 0.00in /  0mm 19 W/m2
15:29 49.8 °F /  9.9 °C 35.9 °F /  2.2 °C 30.14in /  1020.5hPa NNW 2.3mph /  3.7km/h 11mph /  17.7km/h 58.7% 0.00in /  0mm 21 W/m2
15:34 49.7 °F /  9.8 °C 35.9 °F /  2.2 °C 30.13in /  1020.2hPa NW 0.3mph /  0.5km/h 11mph /  17.7km/h 59% 0.00in /  0mm 16 W/m2
15:39 49.5 °F /  9.7 °C 36 °F /  2.2 °C 30.13in /  1020.2hPa NNW 0.6mph /  1km/h 5mph /  8km/h 59.3% 0.00in /  0mm 14 W/m2
15:44 49.4 °F /  9.7 °C 36.1 °F /  2.3 °C 30.13in /  1020.2hPa NNW 1.1mph /  1.8km/h 7mph /  11.3km/h 60% 0.00in /  0mm 16 W/m2
15:49 49.2 °F /  9.6 °C 36 °F /  2.2 °C 30.13in /  1020.2hPa NNW 1.1mph /  1.8km/h 7mph /  11.3km/h 60.2% 0.00in /  0mm 18 W/m2
15:54 49 °F /  9.4 °C 35.9 °F /  2.2 °C 30.14in /  1020.5hPa NW 1.1mph /  1.8km/h 7mph /  11.3km/h 60.4% 0.00in /  0mm 14 W/m2
15:59 48.8 °F /  9.3 °C 36 °F /  2.2 °C 30.13in /  1020.2hPa NW 0.8mph /  1.3km/h 7mph /  11.3km/h 61% 0.00in /  0mm 14 W/m2
16:09 48.4 °F /  9.1 °C 36.3 °F /  2.4 °C 30.13in /  1020.2hPa NW 3.5mph /  5.6km/h 10mph /  16.1km/h 62.6% 0.00in /  0mm 5 W/m2
16:14 48.2 °F /  9 °C 36.4 °F /  2.4 °C 30.13in /  1020.2hPa WNW 4.8mph /  7.7km/h 12mph /  19.3km/h 63.6% 0.00in /  0mm 0 W/m2
16:19 47.9 °F /  8.8 °C 36.5 °F /  2.5 °C 30.13in /  1020.2hPa WNW 4.4mph /  7.1km/h 12mph /  19.3km/h 64.5% 0.00in /  0mm 0 W/m2
16:24 47.7 °F /  8.7 °C 36.8 °F /  2.7 °C 30.14in /  1020.5hPa WNW 3.4mph /  5.5km/h 12mph /  19.3km/h 65.7% 0.00in /  0mm 0 W/m2
16:29 47.4 °F /  8.6 °C 36.7 °F /  2.6 °C 30.13in /  1020.2hPa WNW 3.6mph /  5.8km/h 12mph /  19.3km/h 66.2% 0.00in /  0mm 0 W/m2
16:34 47.2 °F /  8.4 °C 36.8 °F /  2.7 °C 30.13in /  1020.2hPa WNW 2.6mph /  4.2km/h 12mph /  19.3km/h 67% 0.00in /  0mm 0 W/m2
16:39 47 °F /  8.3 °C 36.6 °F /  2.6 °C 30.14in /  1020.5hPa NW 1.3mph /  2.1km/h 11mph /  17.7km/h 67% 0.00in /  0mm 0 W/m2
16:44 46.8 °F /  8.2 °C 36.8 °F /  2.7 °C 30.14in /  1020.5hPa WNW 1.7mph /  2.7km/h 11mph /  17.7km/h 68% 0.00in /  0mm 0 W/m2
16:49 46.6 °F /  8.1 °C 36.6 °F /  2.6 °C 30.14in /  1020.5hPa NW 3.8mph /  6.1km/h 11mph /  17.7km/h 68% 0.00in /  0mm 0 W/m2
16:54 46.3 °F /  7.9 °C 36.4 °F /  2.4 °C 30.13in /  1020.2hPa NW 3.8mph /  6.1km/h 11mph /  17.7km/h 68% 0.00in /  0mm 0 W/m2
16:59 46.2 °F /  7.9 °C 36.6 °F /  2.6 °C 30.13in /  1020.2hPa NW 1.8mph /  2.9km/h 11mph /  17.7km/h 69% 0.00in /  0mm 0 W/m2
17:04 46 °F /  7.8 °C 36.1 °F /  2.3 °C 30.14in /  1020.5hPa NNW 1.8mph /  2.9km/h 11mph /  17.7km/h 68.2% 0.00in /  0mm 0 W/m2
17:09 45.8 °F /  7.7 °C 36.1 °F /  2.3 °C 30.14in /  1020.5hPa NW 3mph /  4.8km/h 8mph /  12.9km/h 68.5% 0.00in /  0mm 0 W/m2
17:14 45.7 °F /  7.6 °C 36.1 °F /  2.3 °C 30.14in /  1020.5hPa WNW 3.3mph /  5.3km/h 10mph /  16.1km/h 69% 0.00in /  0mm 0 W/m2
17:19 45.6 °F /  7.6 °C 36 °F /  2.2 °C 30.14in /  1020.5hPa WNW 6mph /  9.7km/h 12mph /  19.3km/h 69% 0.00in /  0mm 0 W/m2
17:24 45.4 °F /  7.4 °C 35.9 °F /  2.2 °C 30.14in /  1020.5hPa NW 4mph /  6.4km/h 12mph /  19.3km/h 69% 0.00in /  0mm 0 W/m2
17:29 45.3 °F /  7.4 °C 35.8 °F /  2.1 °C 30.14in /  1020.5hPa WNW 4.2mph /  6.8km/h 12mph /  19.3km/h 69% 0.00in /  0mm 0 W/m2
17:34 45.3 °F /  7.4 °C 35.7 °F /  2.1 °C 30.14in /  1020.5hPa NW 2.1mph /  3.4km/h 12mph /  19.3km/h 69% 0.00in /  0mm 0 W/m2
17:39 45.1 °F /  7.3 °C 35.6 °F /  2 °C 30.14in /  1020.5hPa WNW 2.3mph /  3.7km/h 12mph /  19.3km/h 69% 0.00in /  0mm 0 W/m2
17:44 45 °F /  7.2 °C 35.5 °F /  1.9 °C 30.15in /  1020.9hPa NW 2.3mph /  3.7km/h 12mph /  19.3km/h 69% 0.00in /  0mm 0 W/m2
17:49 44.9 °F /  7.2 °C 35.4 °F /  1.9 °C 30.15in /  1020.9hPa NW 1.6mph /  2.6km/h 12mph /  19.3km/h 69% 0.00in /  0mm 0 W/m2
17:54 44.8 °F /  7.1 °C 35.2 °F /  1.8 °C 30.15in /  1020.9hPa NW 1.1mph /  1.8km/h 12mph /  19.3km/h 69% 0.00in /  0mm 0 W/m2
17:59 44.7 °F /  7.1 °C 35.1 °F /  1.7 °C 30.16in /  1021.2hPa NW 1mph /  1.6km/h 12mph /  19.3km/h 69% 0.00in /  0mm 0 W/m2
18:04 44.5 °F /  6.9 °C 35 °F /  1.7 °C 30.16in /  1021.2hPa WNW 3.4mph /  5.5km/h 12mph /  19.3km/h 69% 0.00in /  0mm 0 W/m2
18:09 44.5 °F /  6.9 °C 35 °F /  1.7 °C 30.16in /  1021.2hPa WNW 4.3mph /  6.9km/h 9mph /  14.5km/h 69% 0.00in /  0mm 0 W/m2
18:14 44.4 °F /  6.9 °C 34.9 °F /  1.6 °C 30.16in /  1021.2hPa WNW 1.5mph /  2.4km/h 9mph /  14.5km/h 69% 0.00in /  0mm 0 W/m2
18:19 44.3 °F /  6.8 °C 34.8 °F /  1.6 °C 30.16in /  1021.2hPa WNW 1.4mph /  2.3km/h 9mph /  14.5km/h 69% 0.00in /  0mm 0 W/m2
18:24 44.2 °F /  6.8 °C 34.7 °F /  1.5 °C 30.17in /  1021.6hPa WNW 0.4mph /  0.6km/h 9mph /  14.5km/h 69% 0.00in /  0mm 0 W/m2
18:29 44.1 °F /  6.7 °C 34.6 °F /  1.4 °C 30.17in /  1021.6hPa WNW 0.4mph /  0.6km/h 9mph /  14.5km/h 69% 0.00in /  0mm 0 W/m2
18:34 44 °F /  6.7 °C 34.6 °F /  1.4 °C 30.17in /  1021.6hPa WNW 0.1mph /  0.2km/h 9mph /  14.5km/h 69.4% 0.00in /  0mm 0 W/m2
18:39 43.8 °F /  6.6 °C 34.5 °F /  1.4 °C 30.18in /  1021.9hPa WNW 0.5mph /  0.8km/h 6mph /  9.7km/h 69.4% 0.00in /  0mm 0 W/m2
18:44 43.6 °F /  6.4 °C 34.5 °F /  1.4 °C 30.18in /  1021.9hPa WNW 1.6mph /  2.6km/h 6mph /  9.7km/h 70% 0.00in /  0mm 0 W/m2
18:49 43.5 °F /  6.4 °C 34.4 °F /  1.3 °C 30.18in /  1021.9hPa NW 1.2mph /  1.9km/h 7mph /  11.3km/h 70% 0.00in /  0mm 0 W/m2
18:54 43.4 °F /  6.3 °C 34.3 °F /  1.3 °C 30.18in /  1021.9hPa WNW 0.8mph /  1.3km/h 7mph /  11.3km/h 70% 0.00in /  0mm 0 W/m2
18:59 43.3 °F /  6.3 °C 34.2 °F /  1.2 °C 30.17in /  1021.6hPa WNW 1mph /  1.6km/h 7mph /  11.3km/h 70% 0.00in /  0mm 0 W/m2
19:04 43.2 °F /  6.2 °C 34.1 °F /  1.2 °C 30.18in /  1021.9hPa WNW 0.3mph /  0.5km/h 7mph /  11.3km/h 70% 0.00in /  0mm 0 W/m2
19:09 43.2 °F /  6.2 °C 34.1 °F /  1.2 °C 30.18in /  1021.9hPa WNW 0.5mph /  0.8km/h 5mph /  8km/h 70% 0.00in /  0mm 0 W/m2
19:14 43.1 °F /  6.2 °C 34 °F /  1.1 °C 30.18in /  1021.9hPa NW 0.5mph /  0.8km/h 5mph /  8km/h 70% 0.00in /  0mm 0 W/m2
19:19 43 °F /  6.1 °C 34 °F /  1.1 °C 30.18in /  1021.9hPa NW 0.4mph /  0.6km/h 5mph /  8km/h 70.2% 0.00in /  0mm 0 W/m2
19:24 43 °F /  6.1 °C 34.3 °F /  1.3 °C 30.18in /  1021.9hPa NW 0.4mph /  0.6km/h 5mph /  8km/h 71.1% 0.00in /  0mm 0 W/m2
19:29 43.1 °F /  6.2 °C 34.5 °F /  1.4 °C 30.18in /  1021.9hPa NW 0.7mph /  1.1km/h 5mph /  8km/h 71.4% 0.00in /  0mm 0 W/m2
19:34 43.1 °F /  6.2 °C 34.4 °F /  1.3 °C 30.18in /  1021.9hPa NW 0.1mph /  0.2km/h 5mph /  8km/h 71.1% 0.00in /  0mm 0 W/m2
19:39 43.1 °F /  6.2 °C 34.4 °F /  1.3 °C 30.18in /  1021.9hPa NW 0.2mph /  0.3km/h 4mph /  6.4km/h 71.2% 0.00in /  0mm 0 W/m2
19:44 43.1 °F /  6.2 °C 34.3 °F /  1.3 °C 30.18in /  1021.9hPa Calm   4mph /  6.4km/h 71% 0.00in /  0mm 0 W/m2
19:49 43.1 °F /  6.2 °C 34.3 °F /  1.3 °C 30.18in /  1021.9hPa NW 0.1mph /  0.2km/h 4mph /  6.4km/h 71% 0.00in /  0mm 0 W/m2
19:54 43 °F /  6.1 °C 34.2 °F /  1.2 °C 30.18in /  1021.9hPa Calm   4mph /  6.4km/h 71% 0.00in /  0mm 0 W/m2
19:59 42.9 °F /  6.1 °C 34.1 °F /  1.2 °C 30.19in /  1022.2hPa Calm   4mph /  6.4km/h 71% 0.00in /  0mm 0 W/m2
20:00 42.8 °F /  6 °C 34.1 °F /  1.2 °C 30.19in /  1022.2hPa Calm   4mph /  6.4km/h 71% 0.00in /  0mm 0 W/m2
20:09 42.4 °F /  5.8 °C 34 °F /  1.1 °C 30.19in /  1022.2hPa NW 0.5mph /  0.8km/h 4mph /  6.4km/h 72% 0.00in /  0mm 0 W/m2
20:14 42.2 °F /  5.7 °C 33.8 °F /  1 °C 30.19in /  1022.2hPa NW 2.2mph /  3.5km/h 7mph /  11.3km/h 72% 0.00in /  0mm 0 W/m2
20:19 42 °F /  5.6 °C 33.9 °F /  1.1 °C 30.18in /  1021.9hPa NW 3.1mph /  5km/h 9mph /  14.5km/h 72.7% 0.00in /  0mm 0 W/m2
20:30 41.7 °F /  5.4 °C 34 °F /  1.1 °C 30.18in /  1021.9hPa NW 2mph /  3.2km/h 12mph /  19.3km/h 74% 0.00in /  0mm 0 W/m2
21:00 41.7 °F /  5.4 °C 34 °F /  1.1 °C 30.19in /  1022.2hPa NNW 4mph /  6.4km/h 13mph /  20.9km/h 74% 0.00in /  0mm 0 W/m2
21:30 40.7 °F /  4.8 °C 33.4 °F /  0.8 °C 30.20in /  1022.6hPa Calm   4mph /  6.4km/h 75% 0.00in /  0mm 0 W/m2
22:00 39.5 °F /  4.2 °C 32.6 °F /  0.3 °C 30.21in /  1022.9hPa Calm   13mph /  20.9km/h 76% 0.00in /  0mm 0 W/m2
22:30 38.7 °F /  3.7 °C 32.4 °F /  0.2 °C 30.23in /  1023.6hPa Calm   5mph /  8km/h 78% 0.00in /  0mm 0 W/m2
23:04 38 °F /  3.3 °C 31.5 °F /  -0.3 °C 30.23in /  1023.6hPa NNW 0.8mph /  1.3km/h 5mph /  8km/h 77.1% 0.00in /  0mm 0 W/m2
23:09 37.9 °F /  3.3 °C 31.4 °F /  -0.3 °C 30.23in /  1023.6hPa Calm   4mph /  6.4km/h 77% 0.00in /  0mm 0 W/m2
23:14 37.8 °F /  3.2 °C 31.3 °F /  -0.4 °C 30.23in /  1023.6hPa NNW 0.4mph /  0.6km/h 5mph /  8km/h 77% 0.00in /  0mm 0 W/m2
23:19 37.7 °F /  3.2 °C 31.1 °F /  -0.5 °C 30.23in /  1023.6hPa NNW 0.6mph /  1km/h 5mph /  8km/h 77% 0.00in /  0mm 0 W/m2
23:24 37.5 °F /  3.1 °C 31 °F /  -0.6 °C 30.22in /  1023.2hPa Calm   5mph /  8km/h 77% 0.00in /  0mm 0 W/m2
23:29 37.4 °F /  3 °C 30.9 °F /  -0.6 °C 30.22in /  1023.2hPa NNE 0.6mph /  1km/h 5mph /  8km/h 77% 0.00in /  0mm 0 W/m2
23:34 37.3 °F /  2.9 °C 30.5 °F /  -0.8 °C 30.22in /  1023.2hPa North 0.5mph /  0.8km/h 5mph /  8km/h 76.3% 0.00in /  0mm 0 W/m2
23:39 37.1 °F /  2.8 °C 30.3 °F /  -0.9 °C 30.22in /  1023.2hPa NNW 1.5mph /  2.4km/h 7mph /  11.3km/h 76% 0.00in /  0mm 0 W/m2
23:44 37.1 °F /  2.8 °C 30.3 °F /  -0.9 °C 30.22in /  1023.2hPa NNW 0.8mph /  1.3km/h 7mph /  11.3km/h 76% 0.00in /  0mm 0 W/m2
23:49 37.1 °F /  2.8 °C 30.2 °F /  -1 °C 30.22in /  1023.2hPa NNW 0.3mph /  0.5km/h 7mph /  11.3km/h 76% 0.00in /  0mm 0 W/m2
23:54 37 °F /  2.8 °C 30.1 °F /  -1.1 °C 30.22in /  1023.2hPa NNW 0.4mph /  0.6km/h 7mph /  11.3km/h 76% 0.00in /  0mm 0 W/m2
23:59 36.9 °F /  2.7 °C 29.8 °F /  -1.2 °C 30.22in /  1023.2hPa NNW 0.5mph /  0.8km/h 7mph /  11.3km/h 75.4% 0.00in /  0mm 0 W/m2
Hartford County Weather
Compliments of Weather Underground - 4 mb